PAAQ METAR and TAF weather

Enter ICAO airport designator
Station Type Date Time Source
PAAQ METAR 2024/06/14 02:53 UTC NOAA

PAAQ 140253Z AUTO 12007KT 10SM OVC050 13/06 A3015 RMK AO2 SLP211 T01330061 56009 TSNO


Station Type Date Time Source
PAAQ Decoded METAR 2024/06/14 02:53 UTC NOAA

PALMER MUNICIPAL AIRPORT, AK, United States (PAAQ) 61-36N 149-06W
Jun 13, 2024 - 10:53 PM EDT / 2024.06.14 0253 UTC
Wind: from the ESE (120 degrees) at 8 MPH (7 KT):0
Visibility: 10 mile(s):0
Sky conditions: overcast
Temperature: 55.9 F (13.3 C)
Dew Point: 43.0 F (6.1 C)
Relative Humidity: 61%
Pressure (altimeter): 30.15 in. Hg (1020 hPa)
Pressure tendency: 0.03 inches (0.9 hPa) lower than three hours ago
ob: PAAQ 140253Z AUTO 12007KT 10SM OVC050 13/06 A3015 RMK AO2 SLP211 T01330061 56009 TSNO
cycle: 3

Station Type Date Time Source
PAAQ TAF 2024/06/13 18:30 UTC NOAA